createdAt,value
2023-05-19T00:02:26.213Z,93.68
2023-05-19T00:04:53.318Z,94.07
2023-05-19T00:07:28.976Z,93.92
2023-05-19T00:09:55.958Z,93.92
2023-05-19T00:12:23.532Z,94.28
2023-05-19T00:14:50.623Z,94.61
2023-05-19T00:17:17.589Z,95.05
2023-05-19T00:19:45.211Z,94.93
2023-05-19T00:22:12.014Z,94.82
2023-05-19T00:24:38.736Z,94.47
2023-05-19T00:27:05.780Z,94.99
2023-05-19T00:29:32.600Z,95.15
2023-05-19T00:31:59.352Z,95.56
2023-05-19T00:34:26.283Z,96.26
2023-05-19T00:36:53.067Z,95.91
2023-05-19T00:39:19.712Z,96.32
2023-05-19T00:41:46.489Z,96.92
2023-05-19T00:44:13.152Z,97.18
2023-05-19T00:46:39.952Z,97.34
2023-05-19T00:49:06.634Z,97.55
2023-05-19T00:51:33.446Z,98.00
2023-05-19T00:54:00.325Z,98.03
2023-05-19T00:56:27.179Z,97.64
2023-05-19T00:58:55.074Z,98.50
2023-05-19T01:01:22.652Z,98.67
2023-05-19T01:03:49.993Z,99.37
2023-05-19T01:06:19.258Z,100.00
2023-05-19T01:08:46.529Z,100.00
2023-05-19T01:11:13.234Z,100.00
2023-05-19T01:13:41.958Z,100.00
2023-05-19T01:16:21.458Z,100.00
2023-05-19T01:19:02.848Z,100.00
2023-05-19T01:21:51.700Z,100.00
2023-05-19T01:24:33.691Z,100.00
2023-05-19T01:27:15.567Z,100.00
2023-05-19T01:30:10.695Z,100.00
2023-05-19T01:32:41.369Z,100.00
2023-05-19T01:35:10.121Z,100.00
2023-05-19T01:37:39.125Z,100.00
2023-05-19T01:40:10.095Z,100.00
2023-05-19T01:42:40.061Z,100.00
2023-05-19T01:45:10.696Z,100.00
2023-05-19T01:47:41.332Z,100.00
2023-05-19T01:50:08.607Z,100.00
2023-05-19T01:52:35.481Z,100.00
2023-05-19T01:55:02.242Z,100.00
2023-05-19T01:58:01.492Z,100.00
2023-05-19T02:00:50.172Z,100.00
2023-05-19T02:03:56.518Z,100.00
2023-05-19T02:06:36.162Z,100.00
2023-05-19T02:09:13.920Z,100.00
2023-05-19T02:12:04.987Z,100.00
2023-05-19T02:14:41.101Z,100.00
2023-05-19T02:17:09.491Z,100.00
2023-05-19T02:19:40.130Z,100.00
2023-05-19T02:22:07.078Z,100.00
2023-05-19T02:24:33.952Z,100.00
2023-05-19T02:27:01.050Z,100.00
2023-05-19T02:29:27.724Z,100.00
2023-05-19T02:31:54.613Z,100.00
2023-05-19T02:34:21.390Z,100.00
2023-05-19T02:36:49.984Z,100.00
2023-05-19T02:39:16.760Z,100.00
2023-05-19T02:41:43.517Z,100.00
2023-05-19T02:44:10.260Z,100.00
2023-05-19T02:46:37.090Z,100.00
2023-05-19T02:49:04.051Z,100.00
2023-05-19T02:51:30.763Z,100.00
2023-05-19T02:53:57.588Z,100.00
2023-05-19T02:56:24.397Z,100.00
2023-05-19T02:58:52.741Z,100.00
2023-05-19T03:01:22.178Z,100.00
2023-05-19T03:03:49.289Z,100.00
2023-05-19T03:06:18.143Z,100.00
2023-05-19T03:08:45.131Z,100.00
2023-05-19T03:11:11.888Z,100.00
2023-05-19T03:13:38.735Z,100.00
2023-05-19T03:16:08.053Z,100.00
2023-05-19T03:18:35.346Z,100.00
2023-05-19T03:21:02.045Z,100.00
2023-05-19T03:23:28.725Z,100.00
2023-05-19T03:25:56.430Z,100.00
2023-05-19T03:28:23.509Z,100.00
2023-05-19T03:30:50.911Z,100.00
2023-05-19T03:33:20.858Z,100.00
2023-05-19T03:35:47.809Z,100.00
2023-05-19T03:38:15.458Z,100.00
2023-05-19T03:40:49.558Z,100.00
2023-05-19T03:43:16.358Z,100.00
2023-05-19T03:45:49.038Z,100.00
2023-05-19T03:48:41.441Z,100.00
2023-05-19T03:51:13.960Z,100.00
2023-05-19T03:53:41.314Z,100.00
2023-05-19T03:56:08.273Z,100.00
2023-05-19T03:58:37.025Z,100.00
2023-05-19T04:01:03.834Z,100.00
2023-05-19T04:03:30.763Z,100.00
2023-05-19T04:05:57.616Z,100.00
2023-05-19T04:08:24.298Z,100.00
2023-05-19T04:10:51.001Z,100.00
2023-05-19T04:13:17.663Z,100.00
2023-05-19T04:15:44.489Z,100.00
2023-05-19T04:18:11.292Z,100.00
2023-05-19T04:20:40.251Z,100.00
2023-05-19T04:23:06.946Z,100.00
2023-05-19T04:25:35.972Z,100.00
2023-05-19T04:28:03.144Z,100.00
2023-05-19T04:30:31.197Z,100.00
2023-05-19T04:32:59.295Z,100.00
2023-05-19T04:35:26.024Z,100.00
2023-05-19T04:37:54.474Z,100.00
2023-05-19T04:40:26.069Z,100.00
2023-05-19T04:42:54.189Z,100.00
2023-05-19T04:45:20.996Z,100.00
2023-05-19T04:47:50.787Z,100.00
2023-05-19T04:50:17.639Z,100.00
2023-05-19T04:52:47.375Z,100.00
2023-05-19T04:55:15.317Z,100.00
2023-05-19T04:57:42.168Z,100.00
2023-05-19T05:00:12.874Z,100.00
2023-05-19T05:02:51.772Z,100.00
2023-05-19T05:05:21.168Z,100.00
2023-05-19T05:07:47.948Z,100.00
2023-05-19T05:10:15.098Z,100.00
2023-05-19T05:12:42.057Z,100.00
2023-05-19T05:15:09.700Z,100.00
2023-05-19T05:17:38.623Z,100.00
2023-05-19T05:20:06.966Z,100.00
2023-05-19T05:22:34.208Z,100.00
2023-05-19T05:25:02.017Z,100.00
2023-05-19T05:27:28.921Z,100.00
2023-05-19T05:29:57.379Z,100.00
2023-05-19T05:32:26.699Z,100.00
2023-05-19T05:34:54.606Z,100.00
2023-05-19T05:37:22.038Z,100.00
2023-05-19T05:39:48.845Z,100.00
2023-05-19T05:42:16.209Z,100.00
2023-05-19T05:44:43.472Z,100.00
2023-05-19T05:47:12.070Z,100.00
2023-05-19T05:49:40.458Z,100.00
2023-05-19T05:52:09.405Z,100.00
2023-05-19T05:54:42.845Z,100.00
2023-05-19T05:57:10.810Z,100.00
2023-05-19T05:59:38.673Z,100.00
2023-05-19T06:02:05.670Z,100.00
2023-05-19T06:04:33.498Z,100.00
2023-05-19T06:07:01.832Z,99.90
2023-05-19T06:09:33.102Z,97.49
2023-05-19T06:12:00.648Z,97.46
2023-05-19T06:14:31.109Z,98.00
2023-05-19T06:17:09.801Z,97.43
2023-05-19T06:19:36.557Z,97.83
2023-05-19T06:22:03.350Z,97.91
2023-05-19T06:24:30.772Z,97.27
2023-05-19T06:26:57.505Z,96.70
2023-05-19T06:29:24.364Z,97.75
2023-05-19T06:31:53.153Z,97.76
2023-05-19T06:34:21.175Z,97.31
2023-05-19T06:36:48.082Z,98.81
2023-05-19T06:39:15.628Z,98.06
2023-05-19T06:41:42.377Z,98.03
2023-05-19T06:44:09.273Z,97.98
2023-05-19T06:46:36.071Z,99.36
2023-05-19T06:49:05.134Z,99.54
2023-05-19T06:51:36.963Z,99.69
2023-05-19T06:54:04.222Z,99.08
2023-05-19T06:56:31.018Z,99.73
2023-05-19T06:58:57.733Z,100.00
2023-05-19T07:01:31.047Z,100.00
2023-05-19T07:03:59.077Z,100.00
2023-05-19T07:06:26.184Z,99.92
2023-05-19T07:08:52.915Z,98.64
2023-05-19T07:11:20.125Z,98.34
2023-05-19T07:13:47.708Z,98.42
2023-05-19T07:16:20.480Z,100.00
2023-05-19T07:18:47.208Z,97.86
2023-05-19T07:21:13.918Z,98.36
2023-05-19T07:23:40.681Z,98.65
2023-05-19T07:26:07.372Z,98.76
2023-05-19T07:28:34.518Z,98.41
2023-05-19T07:31:01.533Z,98.29
2023-05-19T07:33:28.273Z,97.20
2023-05-19T07:35:55.049Z,97.26
2023-05-19T07:38:21.791Z,97.08
2023-05-19T07:40:48.560Z,97.62
2023-05-19T07:43:15.245Z,96.71
2023-05-19T07:45:41.958Z,96.90
2023-05-19T07:48:08.975Z,95.35
2023-05-19T07:50:35.856Z,94.04
2023-05-19T07:53:02.751Z,92.76
2023-05-19T07:55:29.434Z,94.94
2023-05-19T07:57:56.325Z,92.86
2023-05-19T08:00:23.217Z,91.78
2023-05-19T08:02:50.023Z,93.90
2023-05-19T08:05:17.329Z,93.16
2023-05-19T08:07:44.083Z,90.83
2023-05-19T08:10:10.926Z,91.28
2023-05-19T08:12:37.642Z,89.43
2023-05-19T08:15:04.896Z,89.79
2023-05-19T08:17:31.684Z,89.27
2023-05-19T08:19:58.518Z,86.25
2023-05-19T08:22:25.225Z,86.80
2023-05-19T08:24:51.971Z,87.32
2023-05-19T08:27:18.649Z,83.41
2023-05-19T08:29:45.518Z,83.08
2023-05-19T08:32:13.357Z,79.94
2023-05-19T08:34:41.487Z,79.40
2023-05-19T08:37:08.365Z,79.64
2023-05-19T08:39:35.362Z,81.82
2023-05-19T08:42:02.494Z,82.87
2023-05-19T08:44:30.946Z,79.01
2023-05-19T08:47:02.805Z,79.39
2023-05-19T08:49:33.441Z,80.65
2023-05-19T08:52:14.239Z,81.10
2023-05-19T08:54:50.952Z,80.77
2023-05-19T08:57:18.849Z,79.19
2023-05-19T08:59:46.101Z,78.61
2023-05-19T09:02:14.537Z,80.10
2023-05-19T09:04:42.258Z,81.05
2023-05-19T09:07:09.525Z,82.82
2023-05-19T09:09:36.268Z,80.11
2023-05-19T09:12:03.228Z,79.60
2023-05-19T09:14:30.862Z,80.30
2023-05-19T09:16:57.785Z,80.56
2023-05-19T09:19:29.026Z,80.96
2023-05-19T09:22:06.406Z,79.96
2023-05-19T09:24:34.730Z,82.02
2023-05-19T09:27:02.269Z,83.36
2023-05-19T09:29:29.049Z,83.39
2023-05-19T09:32:01.031Z,81.73
2023-05-19T09:34:27.943Z,80.54
2023-05-19T09:36:54.714Z,79.92
2023-05-19T09:39:23.118Z,82.82
2023-05-19T09:41:58.553Z,82.46
2023-05-19T09:44:29.889Z,83.07
2023-05-19T09:46:57.287Z,84.61
2023-05-19T09:49:32.804Z,84.13
2023-05-19T09:52:03.325Z,84.45
2023-05-19T09:54:32.317Z,83.27
2023-05-19T09:57:01.019Z,82.63
2023-05-19T09:59:32.496Z,82.30
2023-05-19T10:02:01.343Z,81.41
2023-05-19T10:04:29.506Z,83.66
2023-05-19T10:06:59.853Z,82.03
2023-05-19T10:09:28.970Z,83.22
2023-05-19T10:11:57.232Z,83.34
2023-05-19T10:14:25.825Z,82.73
2023-05-19T10:16:53.839Z,80.75
2023-05-19T10:19:30.035Z,80.01
2023-05-19T10:21:57.134Z,80.55
2023-05-19T10:24:24.025Z,81.24
2023-05-19T10:27:16.651Z,82.49
2023-05-19T10:29:48.985Z,84.25
2023-05-19T10:32:26.784Z,84.43
2023-05-19T10:35:12.037Z,83.88
2023-05-19T10:37:51.280Z,85.10
2023-05-19T10:40:30.370Z,85.82
2023-05-19T10:43:19.219Z,85.56
2023-05-19T10:45:49.502Z,85.68
2023-05-19T10:48:17.282Z,85.72
2023-05-19T10:50:46.270Z,87.45
2023-05-19T10:53:18.568Z,86.43
2023-05-19T10:55:53.256Z,86.32
2023-05-19T10:58:46.139Z,85.06
2023-05-19T11:01:17.211Z,85.98
2023-05-19T11:03:57.280Z,85.64
2023-05-19T11:06:36.209Z,85.95
2023-05-19T11:09:15.234Z,87.60
2023-05-19T11:11:49.889Z,86.93
2023-05-19T11:14:26.817Z,85.36
2023-05-19T11:16:57.740Z,86.20
2023-05-19T11:19:29.254Z,86.95
2023-05-19T11:22:07.623Z,87.00
2023-05-19T11:24:40.386Z,86.08
2023-05-19T11:27:20.242Z,86.07
2023-05-19T11:29:48.458Z,85.71
2023-05-19T11:32:16.104Z,85.26
2023-05-19T11:34:44.921Z,85.81
2023-05-19T11:37:12.382Z,84.93
2023-05-19T11:39:40.235Z,86.36
2023-05-19T11:42:09.818Z,86.78
2023-05-19T11:44:36.821Z,86.70
2023-05-19T11:47:04.464Z,85.61
2023-05-19T11:49:31.541Z,86.14
2023-05-19T11:52:00.941Z,86.98
2023-05-19T11:54:32.934Z,87.86
2023-05-19T11:57:02.761Z,87.44
2023-05-19T11:59:36.101Z,87.66
2023-05-19T12:02:20.823Z,86.89
2023-05-19T12:04:51.186Z,86.39
2023-05-19T12:07:23.549Z,87.41
2023-05-19T12:09:52.088Z,88.00
2023-05-19T12:12:23.062Z,86.85
2023-05-19T12:14:51.558Z,87.85
2023-05-19T12:17:21.512Z,87.04
2023-05-19T12:19:49.260Z,85.99
2023-05-19T12:22:17.345Z,85.97
2023-05-19T12:24:45.262Z,87.12
2023-05-19T12:27:19.625Z,86.59
2023-05-19T12:29:52.317Z,85.77
2023-05-19T12:32:19.742Z,85.24
2023-05-19T12:34:46.484Z,84.27
2023-05-19T12:37:13.222Z,85.39
2023-05-19T12:39:42.520Z,84.76
2023-05-19T12:42:10.818Z,85.54
2023-05-19T12:44:52.697Z,83.71
2023-05-19T12:47:20.485Z,84.60
2023-05-19T12:49:57.493Z,83.11
2023-05-19T12:52:24.527Z,82.25
2023-05-19T12:55:05.121Z,83.24
2023-05-19T12:57:34.902Z,83.01
2023-05-19T13:00:07.203Z,82.33
2023-05-19T13:02:36.192Z,83.08
2023-05-19T13:05:04.882Z,83.55
2023-05-19T13:07:32.201Z,82.64
2023-05-19T13:09:58.942Z,82.77
2023-05-19T13:12:26.207Z,83.34
2023-05-19T13:14:55.435Z,82.70
2023-05-19T13:17:22.380Z,78.51
2023-05-19T13:19:49.209Z,80.82
2023-05-19T13:22:15.948Z,82.00
2023-05-19T13:24:42.716Z,83.30
2023-05-19T13:27:09.429Z,82.99
2023-05-19T13:29:36.143Z,83.31
2023-05-19T13:32:02.852Z,84.43
2023-05-19T13:34:29.609Z,84.90
2023-05-19T13:36:56.818Z,86.40
2023-05-19T13:39:23.928Z,86.29
2023-05-19T13:41:50.690Z,85.72
2023-05-19T13:44:17.426Z,86.45
2023-05-19T13:46:46.076Z,86.71
2023-05-19T13:49:14.177Z,86.61
2023-05-19T13:51:43.793Z,87.10
2023-05-19T13:54:10.711Z,86.60
2023-05-19T13:56:37.590Z,87.28
2023-05-19T13:59:04.913Z,87.19
2023-05-19T14:01:31.832Z,86.98
2023-05-19T14:03:58.746Z,87.09
2023-05-19T14:06:25.791Z,86.25
2023-05-19T14:08:52.486Z,85.74
2023-05-19T14:11:22.721Z,86.06
2023-05-19T14:13:52.488Z,85.74
2023-05-19T14:16:22.014Z,84.43
2023-05-19T14:18:49.550Z,83.30
2023-05-19T14:21:16.375Z,83.11
2023-05-19T14:23:44.467Z,83.33
2023-05-19T14:26:11.173Z,83.04
2023-05-19T14:28:37.973Z,81.29
2023-05-19T14:31:04.800Z,82.34
2023-05-19T14:33:35.040Z,82.92
2023-05-19T14:36:02.432Z,83.59
2023-05-19T14:38:29.613Z,82.00
2023-05-19T14:40:56.813Z,82.89
2023-05-19T14:43:23.689Z,82.90
2023-05-19T14:45:50.451Z,83.09
2023-05-19T14:48:18.068Z,82.78
2023-05-19T14:50:45.053Z,82.22
2023-05-19T14:53:11.858Z,82.67
2023-05-19T14:55:38.671Z,82.80
2023-05-19T14:58:15.931Z,82.55
2023-05-19T15:00:52.400Z,82.34
2023-05-19T15:03:19.806Z,82.03
2023-05-19T15:05:46.784Z,81.11
2023-05-19T15:08:13.783Z,79.60
2023-05-19T15:10:40.731Z,80.29
2023-05-19T15:13:07.470Z,80.45
2023-05-19T15:15:34.295Z,79.42
2023-05-19T15:18:01.170Z,81.68
2023-05-19T15:20:29.526Z,80.81
2023-05-19T15:22:56.386Z,79.15
2023-05-19T15:25:23.084Z,79.72
2023-05-19T15:27:49.809Z,79.92
2023-05-19T15:30:16.563Z,80.23
2023-05-19T15:32:43.370Z,80.26
2023-05-19T15:35:10.121Z,80.86
2023-05-19T15:37:36.838Z,81.75
2023-05-19T15:40:04.466Z,80.98
2023-05-19T15:42:31.610Z,81.01
2023-05-19T15:44:58.315Z,81.70
2023-05-19T15:47:25.015Z,80.85
2023-05-19T15:49:51.848Z,81.26
2023-05-19T15:52:18.669Z,81.01
2023-05-19T15:54:45.445Z,81.09
2023-05-19T15:57:13.564Z,80.68
2023-05-19T15:59:40.382Z,80.61
2023-05-19T16:02:07.873Z,81.07
2023-05-19T16:04:34.652Z,81.54
2023-05-19T16:07:01.426Z,81.36
2023-05-19T16:09:28.139Z,81.08
2023-05-19T16:11:54.839Z,80.53
2023-05-19T16:14:21.599Z,81.37
2023-05-19T16:16:48.348Z,81.29
2023-05-19T16:19:15.128Z,81.34
2023-05-19T16:21:41.831Z,81.39
2023-05-19T16:24:08.640Z,80.78
2023-05-19T16:26:35.477Z,81.35
2023-05-19T16:29:02.217Z,80.48
2023-05-19T16:31:28.946Z,80.99
2023-05-19T16:33:55.735Z,80.41
2023-05-19T16:36:22.981Z,81.15
2023-05-19T16:38:49.716Z,81.00
2023-05-19T16:41:16.378Z,81.50
2023-05-19T16:43:43.196Z,82.15
2023-05-19T16:46:12.133Z,83.38
2023-05-19T16:48:39.142Z,83.23
2023-05-19T16:51:06.440Z,83.59
2023-05-19T16:53:33.159Z,83.53
2023-05-19T16:55:59.905Z,83.93
2023-05-19T16:58:28.016Z,83.41
2023-05-19T17:00:56.955Z,84.04
2023-05-19T17:03:24.104Z,83.19
2023-05-19T17:05:50.992Z,81.90
2023-05-19T17:08:17.756Z,82.29
2023-05-19T17:10:44.935Z,83.60
2023-05-19T17:13:11.835Z,83.37
2023-05-19T17:15:39.302Z,83.23
2023-05-19T17:18:06.761Z,82.66
2023-05-19T17:20:33.817Z,82.43
2023-05-19T17:23:00.600Z,82.88
2023-05-19T17:25:27.312Z,83.44
2023-05-19T17:27:55.174Z,84.00
2023-05-19T17:30:22.019Z,84.71
2023-05-19T17:32:48.927Z,84.74
2023-05-19T17:35:15.799Z,85.81
2023-05-19T17:37:42.557Z,85.97
2023-05-19T17:40:09.787Z,86.78
2023-05-19T17:42:36.479Z,86.41
2023-05-19T17:45:07.520Z,86.46
2023-05-19T17:47:34.562Z,85.91
2023-05-19T17:50:01.309Z,85.24
2023-05-19T17:52:28.299Z,85.11
2023-05-19T17:54:55.292Z,85.06
2023-05-19T17:57:25.408Z,85.14
2023-05-19T17:59:52.418Z,85.21
2023-05-19T18:02:19.349Z,85.30
2023-05-19T18:04:46.466Z,85.04
2023-05-19T18:07:14.256Z,86.07
2023-05-19T18:09:46.096Z,86.26
2023-05-19T18:12:12.831Z,87.14
2023-05-19T18:14:39.976Z,87.25
2023-05-19T18:17:07.137Z,87.92
2023-05-19T18:19:33.851Z,88.28
2023-05-19T18:22:00.841Z,88.60
2023-05-19T18:24:27.502Z,89.63
2023-05-19T18:26:54.272Z,91.49
2023-05-19T18:29:20.958Z,92.36
2023-05-19T18:31:47.746Z,93.34
2023-05-19T18:34:14.462Z,92.97
2023-05-19T18:36:41.685Z,92.90
2023-05-19T18:39:08.372Z,93.78
2023-05-19T18:41:37.422Z,95.13
2023-05-19T18:44:06.007Z,95.35
2023-05-19T18:46:33.724Z,95.58
2023-05-19T18:49:00.574Z,96.24
2023-05-19T18:51:27.286Z,97.16
2023-05-19T18:53:54.047Z,99.00
2023-05-19T18:56:24.814Z,98.10
2023-05-19T18:58:51.989Z,97.76
2023-05-19T19:01:18.836Z,97.46
2023-05-19T19:03:47.075Z,98.42
2023-05-19T19:06:13.909Z,99.07
2023-05-19T19:08:40.614Z,99.27
2023-05-19T19:11:09.444Z,99.28
2023-05-19T19:13:36.302Z,100.00
2023-05-19T19:16:03.493Z,99.62
2023-05-19T19:18:30.232Z,100.00
2023-05-19T19:20:57.743Z,99.88
2023-05-19T19:23:24.659Z,100.00
2023-05-19T19:25:51.383Z,100.00
2023-05-19T19:28:18.158Z,100.00
2023-05-19T19:30:46.331Z,100.00
2023-05-19T19:33:13.136Z,100.00
2023-05-19T19:35:39.980Z,100.00
2023-05-19T19:38:06.705Z,100.00
2023-05-19T19:40:33.895Z,100.00
2023-05-19T19:43:00.946Z,100.00
2023-05-19T19:45:27.617Z,100.00
2023-05-19T19:47:54.422Z,100.00
2023-05-19T19:50:21.339Z,100.00
2023-05-19T19:52:48.055Z,100.00
2023-05-19T19:55:14.862Z,100.00
2023-05-19T19:57:41.646Z,100.00
2023-05-19T20:00:09.213Z,100.00
2023-05-19T20:02:45.622Z,100.00
2023-05-19T20:05:22.590Z,100.00
2023-05-19T20:07:49.582Z,100.00
2023-05-19T20:10:16.659Z,100.00
2023-05-19T20:12:43.698Z,100.00
2023-05-19T20:15:10.956Z,100.00
2023-05-19T20:17:37.722Z,100.00
2023-05-19T20:20:09.900Z,100.00
2023-05-19T20:22:36.675Z,100.00
2023-05-19T20:25:03.630Z,100.00
2023-05-19T20:27:30.334Z,100.00
2023-05-19T20:29:57.173Z,100.00
2023-05-19T20:32:23.896Z,100.00
2023-05-19T20:34:50.858Z,100.00
2023-05-19T20:37:17.605Z,100.00
2023-05-19T20:39:44.416Z,100.00
2023-05-19T20:42:11.387Z,100.00
2023-05-19T20:44:38.166Z,100.00
2023-05-19T20:47:07.874Z,100.00
2023-05-19T20:49:35.287Z,100.00
2023-05-19T20:52:02.316Z,100.00
2023-05-19T20:54:29.136Z,100.00
2023-05-19T20:56:55.881Z,100.00
2023-05-19T20:59:22.622Z,100.00
2023-05-19T21:01:49.451Z,100.00
2023-05-19T21:04:16.255Z,100.00
2023-05-19T21:06:43.107Z,100.00
2023-05-19T21:09:10.804Z,100.00
2023-05-19T21:11:37.696Z,100.00
2023-05-19T21:14:04.583Z,100.00
2023-05-19T21:16:32.049Z,100.00
2023-05-19T21:18:58.924Z,100.00
2023-05-19T21:21:26.231Z,100.00
2023-05-19T21:23:53.039Z,100.00
2023-05-19T21:26:19.783Z,100.00
2023-05-19T21:28:46.454Z,100.00
2023-05-19T21:31:13.232Z,100.00
2023-05-19T21:33:40.005Z,100.00
2023-05-19T21:36:07.062Z,100.00
2023-05-19T21:38:33.851Z,100.00
2023-05-19T21:41:00.699Z,100.00
2023-05-19T21:43:27.472Z,100.00
2023-05-19T21:45:54.154Z,100.00
2023-05-19T21:48:21.671Z,100.00
2023-05-19T21:50:53.912Z,100.00
2023-05-19T21:53:21.023Z,100.00
2023-05-19T21:55:48.338Z,100.00
2023-05-19T21:58:15.106Z,100.00
2023-05-19T22:00:41.888Z,100.00
2023-05-19T22:03:08.828Z,100.00
2023-05-19T22:05:38.125Z,100.00
2023-05-19T22:08:05.155Z,100.00
2023-05-19T22:10:32.245Z,100.00
2023-05-19T22:12:59.209Z,100.00
2023-05-19T22:15:26.755Z,100.00
2023-05-19T22:17:53.482Z,100.00
2023-05-19T22:20:20.603Z,100.00
2023-05-19T22:22:47.290Z,100.00
2023-05-19T22:25:13.948Z,100.00
2023-05-19T22:27:40.603Z,100.00
2023-05-19T22:30:07.910Z,100.00
2023-05-19T22:32:35.312Z,100.00
2023-05-19T22:35:02.054Z,100.00
2023-05-19T22:37:29.058Z,100.00
2023-05-19T22:39:55.729Z,100.00
2023-05-19T22:42:22.429Z,100.00
2023-05-19T22:44:49.168Z,100.00
2023-05-19T22:47:15.962Z,100.00
2023-05-19T22:49:43.293Z,100.00
2023-05-19T22:52:11.095Z,100.00
2023-05-19T22:54:38.035Z,100.00
2023-05-19T22:57:05.264Z,100.00
2023-05-19T22:59:32.085Z,100.00
2023-05-19T23:01:58.739Z,100.00
2023-05-19T23:04:25.745Z,100.00
2023-05-19T23:06:52.720Z,100.00
2023-05-19T23:09:19.433Z,100.00
2023-05-19T23:11:46.350Z,100.00
2023-05-19T23:14:13.529Z,100.00
2023-05-19T23:16:40.231Z,100.00
2023-05-19T23:19:07.340Z,100.00
2023-05-19T23:21:34.085Z,100.00
2023-05-19T23:24:01.025Z,100.00
2023-05-19T23:26:27.705Z,100.00
2023-05-19T23:28:54.404Z,100.00
2023-05-19T23:31:21.129Z,100.00
2023-05-19T23:33:47.845Z,100.00
2023-05-19T23:36:14.554Z,100.00
2023-05-19T23:38:41.297Z,100.00
2023-05-19T23:41:08.030Z,100.00
2023-05-19T23:43:34.769Z,100.00
2023-05-19T23:46:01.730Z,100.00
2023-05-19T23:48:29.376Z,100.00
2023-05-19T23:50:57.410Z,100.00
2023-05-19T23:53:24.640Z,100.00
2023-05-19T23:55:51.715Z,100.00
2023-05-19T23:58:18.693Z,100.00
